Dyess Air Force Base
KDYS : now visible

Airfield :











YOU CAN JOIN US ON...

 
LOGIN :

Register | Disclaimer

   EN    FR    IT 

 









Legend :    VFR   Marginal VFR   IFR   Intensive IFR   Very Intensive IFR
Visi :
Ceiling :
>= 8 km
>= 3000ft
5 to 8 km
1000 to 3000 ft
1500m to 5 km
500 to 1000 ft
800 to 1500m
200 to 500 ft
< 800m
< 200 ft
Symbols :   Thunderstorms  Fog  Heavy snow  Heavy precipitations  Wind > 20 kt






- Airport Elevation : 1789 ft


KDYS - Dyess Air Force Base

CURRENT METAR :
  • 301556Z AUTO 11003KT 10SM CLR 32/18 A3014 RMK AO2 SLP154 T03220184

EXPIRED METARs :
  • 301456Z AUTO 17003KT 10SM CLR 31/18 A3013 RMK AO2 SLP151 T03070181 52009
  • 301356Z AUTO 17006KT 10SM CLR 28/19 A3013 RMK AO2 SLP153 T02820186 $

TAF TAF KDYS
Valid from the 30 at 12:00 until the 31 at 18:00 UTC


301200Z 3012/3118 VRB06KT 9999 SCT030 QNH3007INS
BECMG 3014/3015 VRB06KT 9999 FEW050 QNH3009INS
BECMG 3017/3018 VRB06KT 9999 BKN070 QNH2999INS
TEMPO 3019/3023 14009KT 9999 VCSH
BECMG 3101/3102 16012KT 9999 SKC QNH3001INS
BECMG 3110/3111 19009KT 9999 SKC QNH3005INS
BECMG 3114/3115 VRB06KT 9999 SCT050 QNH3003INS TX35/3022Z TN24/3012Z
KZFW FIR / North America



MET'MAP, your aeronautical weather chart ! - Copyright ORBIFLY December 2007 - Disclaimer

ORBIFLY MET'MAP TEAM :

Programming & Development : Alexandra Zaïnal
Concept & original design : Baudouin d'Aumeries
Assistance for programming : Marc-Olivier Méhu
Technical & hardware support : Manuel Goepfert

Contact : metmap@orbifly.com




SOURCES & CREDITS :

   NOAA       Earth
Advisory